Time;durP1;ratioP1;P1;durP2;ratioP2;P2;SDS_P1;SDS_P2;PMS_P1;PMS_P2;Temp;Humidity;BMP_temperature;BMP_pressure;BME280_temperature;BME280_humidity;BME280_pressure;Samples;Min_cycle;Max_cycle;Signal;HPM_P1;HPM_P2
2021/05/07 00:01:05;;;;;;;2.00;1.40;;;;;;;8.39;95.93;95473.94;5052958;28;20655;-63
2021/05/07 00:03:31;;;;;;;1.30;1.03;;;;;;;8.69;95.03;95477.13;5066170;28;20442;-63
2021/05/07 00:05:57;;;;;;;1.13;1.13;;;;;;;8.78;95.05;95480.94;5075558;28;20420;-61
2021/05/07 00:08:26;;;;;;;1.07;1.07;;;;;;;8.35;97.71;95479.88;5072299;28;20203;-60
2021/05/07 00:10:52;;;;;;;1.00;0.97;;;;;;;8.40;97.67;95495.69;5066622;28;20505;-63
2021/05/07 00:13:17;;;;;;;1.00;1.00;;;;;;;8.56;96.47;95493.13;5063713;28;20517;-63
2021/05/07 00:15:43;;;;;;;0.90;0.90;;;;;;;8.62;97.21;95491.38;5056364;28;20406;-62
2021/05/07 00:18:08;;;;;;;1.07;1.03;;;;;;;8.57;97.32;95486.06;5055939;28;20167;-63
2021/05/07 00:20:34;;;;;;;0.70;0.70;;;;;;;8.86;95.52;95500.72;5056018;28;20196;-63
2021/05/07 00:23:00;;;;;;;0.90;0.90;;;;;;;8.98;95.08;95485.72;5056079;28;20165;-63
2021/05/07 00:25:25;;;;;;;0.90;0.90;;;;;;;8.84;94.95;95474.75;5056100;28;20177;-61
2021/05/07 00:28:06;;;;;;;3.60;1.20;;;;;;;8.41;96.14;95486.81;5061857;28;20220;-63
2021/05/07 00:30:32;;;;;;;0.87;0.87;;;;;;;8.70;96.06;95485.75;5075989;28;20200;-63
2021/05/07 00:32:57;;;;;;;1.30;1.20;;;;;;;8.72;94.65;95492.34;5075465;28;20399;-61
2021/05/07 00:35:23;;;;;;;1.03;1.03;;;;;;;8.76;94.71;95484.81;5075475;28;20912;-63
2021/05/07 00:37:50;;;;;;;1.43;1.33;;;;;;;8.71;94.93;95492.59;5075369;28;20640;-63
2021/05/07 00:40:16;;;;;;;1.40;1.30;;;;;;;8.51;96.56;95485.19;5075761;28;20888;-61
2021/05/07 00:42:42;;;;;;;1.17;1.17;;;;;;;8.61;96.22;95492.41;5068006;28;20436;-61
2021/05/07 00:45:09;;;;;;;1.70;1.60;;;;;;;8.59;96.22;95495.25;5070870;28;20420;-62
2021/05/07 00:47:38;;;;;;;2.17;1.30;;;;;;;8.68;96.70;95493.06;5055188;28;20200;-64
2021/05/07 00:50:06;;;;;;;1.37;1.30;;;;;;;8.98;95.39;95488.34;5055689;28;20545;-63
2021/05/07 00:52:34;;;;;;;1.63;1.53;;;;;;;9.05;94.63;95494.22;5055571;28;20809;-61
2021/05/07 00:55:01;;;;;;;1.07;1.07;;;;;;;9.14;94.67;95492.81;5055546;28;20418;-63
2021/05/07 00:57:28;;;;;;;0.80;0.80;;;;;;;9.14;94.88;95498.84;5055158;28;20406;-61
2021/05/07 00:59:53;;;;;;;0.90;0.90;;;;;;;9.18;94.36;95504.41;5055564;28;20550;-63
2021/05/07 01:02:18;;;;;;;1.20;1.10;;;;;;;9.37;94.17;95502.34;5056758;28;20418;-63
2021/05/07 01:04:44;;;;;;;1.20;1.00;;;;;;;9.27;92.89;95510.84;5075355;28;20176;-61
2021/05/07 01:07:10;;;;;;;1.40;1.30;;;;;;;9.10;94.72;95505.59;5074835;28;20199;-62
2021/05/07 01:09:35;;;;;;;0.90;0.90;;;;;;;9.21;94.48;95504.72;5075436;28;20191;-63
2021/05/07 01:12:01;;;;;;;0.90;0.90;;;;;;;9.18;94.42;95504.41;5066453;28;20664;-63
2021/05/07 01:14:26;;;;;;;1.10;1.00;;;;;;;8.90;96.03;95509.69;5055137;28;20203;-61
2021/05/07 01:16:51;;;;;;;2.10;1.17;;;;;;;9.34;94.53;95508.84;5055759;28;20308;-62
2021/05/07 01:19:17;;;;;;;0.73;0.73;;;;;;;9.32;93.65;95505.66;5054871;28;20201;-61
2021/05/07 01:21:43;;;;;;;0.80;0.70;;;;;;;8.71;95.43;95514.34;5061653;28;20314;-60
2021/05/07 01:24:09;;;;;;;0.70;0.60;;;;;;;8.84;95.22;95503.56;5074863;28;20165;-63
2021/05/07 01:26:34;;;;;;;0.80;0.80;;;;;;;9.21;94.40;95504.72;5074933;28;20417;-61
2021/05/07 01:29:00;;;;;;;0.77;0.50;;;;;;;9.15;93.78;95516.16;5072520;28;20227;-63
2021/05/07 01:31:25;;;;;;;0.80;0.80;;;;;;;9.16;93.08;95519.56;5074747;28;20168;-63
2021/05/07 01:33:50;;;;;;;0.83;0.83;;;;;;;9.04;92.67;95511.75;5074923;28;20187;-63
2021/05/07 01:36:16;;;;;;;0.93;0.93;;;;;;;9.11;92.93;95514.25;5073812;28;20263;-63
2021/05/07 01:38:41;;;;;;;1.23;1.13;;;;;;;8.98;94.14;95515.34;5072209;28;20250;-61
2021/05/07 01:41:07;;;;;;;0.80;0.80;;;;;;;9.23;93.07;95520.19;5054765;28;20172;-61
2021/05/07 01:43:33;;;;;;;0.83;0.83;;;;;;;9.11;92.50;95517.66;5054678;28;20177;-62
2021/05/07 01:45:59;;;;;;;0.70;0.70;;;;;;;8.89;94.02;95527.25;5053341;28;20626;-63
2021/05/07 01:48:24;;;;;;;0.90;0.90;;;;;;;8.77;94.93;95521.25;5054019;28;20569;-61
2021/05/07 01:50:50;;;;;;;1.47;1.30;;;;;;;9.17;94.59;95527.19;5055280;28;20208;-64
2021/05/07 01:53:16;;;;;;;0.83;0.83;;;;;;;9.15;93.11;95537.09;5054802;28;20184;-63
2021/05/07 01:55:44;;;;;;;0.80;0.80;;;;;;;9.09;94.53;95532.03;5054461;28;20175;-63
2021/05/07 01:58:13;;;;;;;1.00;1.00;;;;;;;9.14;94.11;95521.63;5068291;28;20432;-63
2021/05/07 02:00:40;;;;;;;1.10;1.10;;;;;;;9.33;93.81;95522.97;5074086;28;20428;-63
2021/05/07 02:03:06;;;;;;;0.70;0.70;;;;;;;9.14;93.79;95514.56;5074352;28;20401;-61
2021/05/07 02:05:32;;;;;;;0.67;0.67;;;;;;;9.06;94.18;95527.25;5074198;28;20407;-61
2021/05/07 02:07:59;;;;;;;0.80;0.80;;;;;;;8.57;96.94;95528.72;5073644;28;20463;-61
2021/05/07 02:10:27;;;;;;;0.90;0.80;;;;;;;8.92;96.62;95525.97;5055314;28;20439;-61
2021/05/07 02:12:55;;;;;;;0.93;0.93;;;;;;;8.87;96.63;95528.50;5054125;28;20406;-61
2021/05/07 02:15:21;;;;;;;0.80;0.80;;;;;;;8.84;95.96;95524.50;5054146;28;20865;-62
2021/05/07 02:17:48;;;;;;;0.90;0.90;;;;;;;8.98;96.13;95522.41;5053508;28;20402;-61
2021/05/07 02:20:15;;;;;;;1.33;1.00;;;;;;;8.89;95.73;95521.19;5054023;28;20501;-62
2021/05/07 02:22:46;;;;;;;1.03;1.00;;;;;;;9.10;94.80;95523.13;5053914;28;20943;-63
2021/05/07 02:25:13;;;;;;;0.90;0.90;;;;;;;9.35;93.44;95528.78;5054859;28;20424;-62
2021/05/07 02:27:38;;;;;;;1.03;1.00;;;;;;;9.22;93.39;95531.72;5061168;28;20463;-62
2021/05/07 02:30:06;;;;;;;0.90;0.90;;;;;;;9.42;92.75;95532.03;5073652;28;20472;-62
2021/05/07 02:32:32;;;;;;;0.90;0.90;;;;;;;9.27;93.43;95531.81;5073820;28;20226;-62
2021/05/07 02:34:57;;;;;;;0.80;0.80;;;;;;;9.32;93.70;95531.88;5072811;28;20869;-61
2021/05/07 02:37:23;;;;;;;2.57;1.00;;;;;;;9.33;91.97;95531.63;5073369;28;20172;-62
2021/05/07 02:39:48;;;;;;;1.03;1.03;;;;;;;9.05;95.37;95538.75;5071692;28;20207;-62
2021/05/07 02:42:13;;;;;;;0.90;0.90;;;;;;;9.21;93.83;95545.84;5073566;28;20199;-62
2021/05/07 02:44:39;;;;;;;1.47;1.07;;;;;;;9.34;93.40;95548.97;5073582;28;20246;-62
2021/05/07 02:47:04;;;;;;;4.53;2.37;;;;;;;9.29;92.88;95548.09;5072779;28;20191;-62
2021/05/07 02:49:33;;;;;;;1.10;1.00;;;;;;;9.42;92.52;95555.63;5065063;28;20668;-63
2021/05/07 02:52:01;;;;;;;1.07;0.80;;;;;;;9.58;92.07;95544.38;5053559;28;20255;-62
2021/05/07 02:54:26;;;;;;;0.97;0.97;;;;;;;9.61;91.58;95551.75;5067270;28;20423;-62
2021/05/07 02:56:52;;;;;;;2.27;1.00;;;;;;;9.46;92.53;95542.88;5072733;28;20902;-62
2021/05/07 02:59:17;;;;;;;3.83;0.87;;;;;;;9.64;91.23;95550.47;5073268;28;20231;-62
2021/05/07 03:01:43;;;;;;;1.00;0.90;;;;;;;9.61;91.52;95557.00;5060047;28;20179;-62
2021/05/07 03:04:08;;;;;;;3.70;0.93;;;;;;;9.33;94.00;95562.28;5061409;28;20310;-61
2021/05/07 03:06:34;;;;;;;0.80;0.70;;;;;;;8.39;98.36;95557.69;5056028;28;20187;-61
2021/05/07 03:09:00;;;;;;;1.07;1.07;;;;;;;7.96;100.00;95555.47;5052736;28;20192;-62
2021/05/07 03:11:26;;;;;;;1.60;1.50;;;;;;;8.54;98.98;95557.19;5053127;28;20661;-62
2021/05/07 03:13:52;;;;;;;1.23;1.17;;;;;;;8.79;96.72;95555.06;5053190;28;20406;-61
2021/05/07 03:16:19;;;;;;;1.40;1.30;;;;;;;8.66;96.54;95555.34;5053253;28;20629;-62
2021/05/07 03:18:44;;;;;;;1.33;1.23;;;;;;;8.45;97.45;95563.81;5052887;28;20525;-61
2021/05/07 03:21:09;;;;;;;1.73;1.60;;;;;;;8.56;98.17;95569.03;5068758;28;20499;-61
2021/05/07 03:23:35;;;;;;;3.97;1.47;;;;;;;8.31;98.17;95577.16;5054913;28;20222;-61
2021/05/07 03:26:00;;;;;;;1.47;1.37;;;;;;;8.33;98.01;95574.34;5053125;28;20506;-61
2021/05/07 03:28:25;;;;;;;1.53;1.43;;;;;;;7.89;100.00;95578.34;5052819;28;20204;-61
2021/05/07 03:30:51;;;;;;;1.53;1.43;;;;;;;7.48;100.00;95577.63;5054064;28;20180;-62
2021/05/07 03:33:16;;;;;;;1.60;1.50;;;;;;;7.69;100.00;95577.88;5053147;28;20189;-63
2021/05/07 03:35:41;;;;;;;1.80;1.70;;;;;;;7.76;100.00;95575.13;5054300;28;20225;-61
2021/05/07 03:38:07;;;;;;;2.07;1.90;;;;;;;7.86;100.00;95581.38;5052686;28;20186;-62
2021/05/07 03:40:33;;;;;;;2.73;1.70;;;;;;;7.82;100.00;95589.91;5052895;28;20198;-61
2021/05/07 03:42:58;;;;;;;1.67;1.57;;;;;;;7.48;100.00;95586.28;5052913;28;20168;-62
2021/05/07 03:45:24;;;;;;;1.80;1.70;;;;;;;7.45;100.00;95594.53;5052998;28;20805;-62
2021/05/07 03:47:49;;;;;;;2.13;1.93;;;;;;;7.68;100.00;95609.47;5051241;28;20297;-61
2021/05/07 03:50:15;;;;;;;1.77;1.67;;;;;;;7.57;100.00;95605.81;5062010;28;20212;-62
2021/05/07 03:52:43;;;;;;;2.23;2.10;;;;;;;7.68;100.00;95601.63;5072196;28;20279;-61
2021/05/07 03:55:11;;;;;;;2.10;1.90;;;;;;;7.28;100.00;95614.50;5072830;28;20178;-62
2021/05/07 03:57:36;;;;;;;1.50;1.40;;;;;;;7.37;100.00;95618.41;5072829;28;20460;-61
2021/05/07 04:00:06;;;;;;;1.40;1.30;;;;;;;7.06;100.00;95614.22;5072820;28;20426;-63
2021/05/07 04:02:32;;;;;;;2.30;1.53;;;;;;;6.97;100.00;95623.38;5073009;28;20225;-61
2021/05/07 04:04:57;;;;;;;1.40;1.30;;;;;;;7.36;100.00;95615.97;5070893;28;20818;-62
2021/05/07 04:07:23;;;;;;;1.63;1.53;;;;;;;7.37;100.00;95623.63;5071570;28;20204;-61
2021/05/07 04:09:55;;;;;;;1.40;1.30;;;;;;;7.22;100.00;95629.25;5060921;28;20206;-61
2021/05/07 04:12:30;;;;;;;1.20;1.17;;;;;;;7.42;100.00;95631.59;5074312;28;20423;-63
2021/05/07 04:14:56;;;;;;;1.27;1.00;;;;;;;7.11;100.00;95640.47;5076225;28;20468;-62
2021/05/07 04:17:21;;;;;;;2.37;1.47;;;;;;;7.09;100.00;95634.66;5075223;28;20494;-61
2021/05/07 04:19:47;;;;;;;1.30;0.90;;;;;;;6.94;100.00;95644.69;5075020;28;20705;-61
2021/05/07 04:22:12;;;;;;;1.10;1.00;;;;;;;6.62;100.00;95642.50;5076137;28;20166;-62
2021/05/07 04:24:37;;;;;;;1.13;1.03;;;;;;;6.43;100.00;95646.13;5076187;28;20525;-61
2021/05/07 04:27:03;;;;;;;2.60;1.40;;;;;;;6.75;100.00;95643.16;5058456;28;20201;-63
2021/05/07 04:29:28;;;;;;;1.00;1.00;;;;;;;6.89;100.00;95651.59;5056010;28;20302;-62
2021/05/07 04:31:54;;;;;;;1.00;0.90;;;;;;;6.89;100.00;95644.56;5056935;28;20177;-62
2021/05/07 04:34:19;;;;;;;1.43;1.20;;;;;;;6.79;100.00;95652.13;5055932;28;20176;-62
2021/05/07 04:36:45;;;;;;;1.47;1.00;;;;;;;6.71;100.00;95667.28;5055841;28;20179;-62
2021/05/07 04:39:10;;;;;;;0.93;0.93;;;;;;;6.52;100.00;95661.28;5055576;28;20254;-63
2021/05/07 04:41:36;;;;;;;1.77;1.20;;;;;;;6.21;100.00;95667.41;5055869;28;20168;-61
2021/05/07 04:44:02;;;;;;;3.30;1.37;;;;;;;6.38;100.00;95669.47;5055839;28;20174;-61
2021/05/07 04:46:27;;;;;;;2.10;1.10;;;;;;;6.51;100.00;95661.47;5056590;28;20214;-61
2021/05/07 04:48:53;;;;;;;1.30;1.20;;;;;;;6.69;100.00;95679.75;5055050;28;20857;-63
2021/05/07 04:51:19;;;;;;;1.70;1.47;;;;;;;6.96;100.00;95674.00;5055613;28;20681;-61
2021/05/07 04:53:44;;;;;;;2.60;1.43;;;;;;;6.58;100.00;95689.09;5055565;28;20221;-62
2021/05/07 04:56:09;;;;;;;1.10;1.10;;;;;;;6.72;100.00;95685.31;5055827;28;20177;-61
2021/05/07 04:58:35;;;;;;;1.43;1.33;;;;;;;6.70;100.00;95687.38;5055290;28;20165;-61
2021/05/07 05:01:00;;;;;;;1.30;1.20;;;;;;;6.80;100.00;95692.88;5056541;28;20189;-61
2021/05/07 05:03:26;;;;;;;1.13;0.80;;;;;;;6.87;100.00;95698.00;5055487;28;20206;-61
2021/05/07 05:05:51;;;;;;;0.83;0.83;;;;;;;7.08;100.00;95700.97;5055270;28;20706;-62
2021/05/07 05:08:26;;;;;;;0.77;0.77;;;;;;;6.84;100.00;95699.25;5054973;28;20241;-62
2021/05/07 05:10:55;;;;;;;0.80;0.80;;;;;;;7.07;100.00;95694.16;5055573;28;20529;-63
2021/05/07 05:13:21;;;;;;;1.30;1.20;;;;;;;6.88;100.00;95700.44;5055260;28;20416;-61
2021/05/07 05:15:51;;;;;;;1.37;0.80;;;;;;;6.72;100.00;95710.66;5061255;28;20427;-62
2021/05/07 05:18:29;;;;;;;1.00;1.00;;;;;;;6.90;100.00;95708.03;5074702;28;20177;-61
2021/05/07 05:21:05;;;;;;;2.57;1.03;;;;;;;6.47;100.00;95710.69;5074793;28;20405;-63
2021/05/07 05:23:30;;;;;;;1.80;1.07;;;;;;;6.44;100.00;95710.31;5073426;28;20480;-63
2021/05/07 05:25:56;;;;;;;1.70;0.93;;;;;;;6.48;100.00;95714.09;5075089;28;20405;-61
2021/05/07 05:28:23;;;;;;;1.00;1.00;;;;;;;6.40;100.00;95712.56;5072292;28;20226;-62
2021/05/07 05:30:48;;;;;;;2.73;1.97;;;;;;;6.49;100.00;95720.91;5073986;28;20259;-62
2021/05/07 05:33:14;;;;;;;2.10;1.30;;;;;;;6.42;100.00;95728.81;5074748;28;20497;-62
2021/05/07 05:35:40;;;;;;;1.73;1.63;;;;;;;6.73;100.00;95728.69;5074748;28;20204;-62
2021/05/07 05:38:06;;;;;;;1.37;1.30;;;;;;;6.72;100.00;95747.19;5074262;28;20513;-61
2021/05/07 05:40:31;;;;;;;2.33;2.13;;;;;;;6.45;100.00;95741.41;5072918;28;20435;-62
2021/05/07 05:42:57;;;;;;;2.20;1.43;;;;;;;6.73;100.00;95743.56;5072531;28;20219;-62
2021/05/07 05:45:24;;;;;;;1.60;1.50;;;;;;;6.45;100.00;95749.25;5073816;28;20575;-61
2021/05/07 05:48:05;;;;;;;3.00;1.93;;;;;;;6.69;100.00;95751.03;5054724;28;20204;-61
2021/05/07 05:50:35;;;;;;;2.20;2.00;;;;;;;6.83;100.00;95756.91;5074184;28;20439;-61
2021/05/07 05:53:00;;;;;;;2.50;2.30;;;;;;;6.47;100.00;95751.66;5074505;28;20407;-62
2021/05/07 05:55:26;;;;;;;2.90;1.93;;;;;;;6.42;100.00;95767.94;5070989;28;20424;-60
2021/05/07 05:57:52;;;;;;;3.03;2.77;;;;;;;6.63;100.00;95764.16;5053996;28;20176;-61
2021/05/07 06:00:19;;;;;;;2.60;2.30;;;;;;;6.42;100.00;95775.78;5056570;28;20204;-62
2021/05/07 06:02:44;;;;;;;2.43;2.23;;;;;;;6.63;100.00;95766.75;5074359;28;20417;-61
2021/05/07 06:05:11;;;;;;;3.70;2.83;;;;;;;6.75;100.00;95770.25;5074074;28;20408;-62
2021/05/07 06:07:37;;;;;;;2.77;2.57;;;;;;;6.86;100.00;95775.56;5073889;28;20219;-61
2021/05/07 06:10:04;;;;;;;3.00;2.80;;;;;;;7.27;100.00;95773.06;5071682;28;20534;-60
2021/05/07 06:12:29;;;;;;;3.03;2.70;;;;;;;7.37;100.00;95772.56;5073898;28;21013;-61
2021/05/07 06:14:55;;;;;;;3.43;3.13;;;;;;;7.27;100.00;95775.69;5073048;28;20521;-61
2021/05/07 06:17:20;;;;;;;3.53;3.23;;;;;;;7.37;100.00;95788.25;5073535;28;20254;-62
2021/05/07 06:19:46;;;;;;;3.63;3.33;;;;;;;7.45;99.98;95787.94;5073850;28;20673;-61
2021/05/07 06:22:11;;;;;;;4.07;3.67;;;;;;;7.28;99.92;95792.94;5062419;28;20174;-60
2021/05/07 06:24:36;;;;;;;4.10;3.70;;;;;;;7.14;100.00;95788.91;5053956;28;20529;-63
2021/05/07 06:27:02;;;;;;;4.90;4.40;;;;;;;7.82;99.67;95792.06;5053432;28;20201;-62
2021/05/07 06:29:27;;;;;;;4.77;4.27;;;;;;;7.41;96.44;95786.75;5054064;28;20191;-62
2021/05/07 06:31:53;;;;;;;4.90;4.10;;;;;;;7.65;97.98;95793.69;5053128;28;20185;-60
2021/05/07 06:34:18;;;;;;;4.57;4.17;;;;;;;7.51;97.88;95807.97;5053685;28;20178;-63
2021/05/07 06:36:43;;;;;;;6.50;4.50;;;;;;;7.12;100.00;95803.22;5054630;28;20178;-62
2021/05/07 06:39:09;;;;;;;4.93;4.47;;;;;;;7.73;100.00;95809.09;5058619;28;20193;-62
2021/05/07 06:41:35;;;;;;;5.97;4.97;;;;;;;7.96;98.01;95811.78;5073726;28;20261;-62
2021/05/07 06:44:00;;;;;;;5.93;4.17;;;;;;;7.97;98.43;95818.59;5071425;28;20417;-62
2021/05/07 06:46:26;;;;;;;6.33;5.73;;;;;;;8.21;96.86;95811.63;5072667;28;20181;-61
2021/05/07 06:48:51;;;;;;;5.10;4.57;;;;;;;8.36;95.82;95821.69;5066490;28;20676;-63
2021/05/07 06:51:16;;;;;;;5.83;5.23;;;;;;;8.06;97.95;95827.72;5054532;28;20202;-63
2021/05/07 06:53:42;;;;;;;6.47;5.73;;;;;;;8.21;96.63;95822.88;5053423;28;20550;-61
2021/05/07 06:56:09;;;;;;;5.77;5.27;;;;;;;7.88;96.31;95832.22;5053369;28;20172;-62
2021/05/07 06:58:35;;;;;;;7.03;6.33;;;;;;;8.38;96.48;95827.50;5051648;28;20176;-61
2021/05/07 07:01:00;;;;;;;6.17;5.63;;;;;;;8.32;95.49;95830.00;5053464;28;20479;-61
2021/05/07 07:03:25;;;;;;;7.60;5.73;;;;;;;8.02;94.46;95837.06;5054421;28;20724;-62
2021/05/07 07:05:51;;;;;;;6.50;5.33;;;;;;;7.75;94.70;95832.41;5069385;28;20241;-61
2021/05/07 07:08:16;;;;;;;5.83;5.33;;;;;;;7.68;95.50;95844.75;5052998;28;20210;-62
2021/05/07 07:10:42;;;;;;;6.83;6.13;;;;;;;8.02;95.09;95851.97;5052995;28;20240;-62
2021/05/07 07:13:07;;;;;;;5.90;5.30;;;;;;;8.11;94.35;95855.84;5060021;28;20177;-61
2021/05/07 07:15:32;;;;;;;10.10;7.17;;;;;;;7.55;95.49;95861.41;5058508;28;20259;-60
2021/05/07 07:17:58;;;;;;;6.97;6.27;;;;;;;7.55;95.05;95861.41;5054104;28;20174;-63
2021/05/07 07:20:23;;;;;;;7.10;6.40;;;;;;;7.57;94.62;95864.59;5073265;28;20189;-60
2021/05/07 07:22:49;;;;;;;6.93;6.23;;;;;;;7.45;97.63;95868.94;5072465;28;20188;-62
2021/05/07 07:25:14;;;;;;;7.63;6.50;;;;;;;7.90;95.34;95867.59;5073240;28;20167;-63
2021/05/07 07:27:39;;;;;;;7.30;6.60;;;;;;;7.98;94.37;95880.38;5057872;28;20228;-60
2021/05/07 07:30:05;;;;;;;7.70;7.00;;;;;;;7.89;94.32;95876.47;5053584;28;20209;-66
2021/05/07 07:32:31;;;;;;;7.60;6.80;;;;;;;7.55;95.46;95884.13;5048888;28;20201;-62
2021/05/07 07:35:01;;;;;;;8.00;7.30;;;;;;;7.68;96.50;95881.38;5049560;28;20440;-61
2021/05/07 07:37:27;;;;;;;8.17;6.77;;;;;;;7.90;95.44;95885.91;5061778;28;20208;-61
2021/05/07 07:39:52;;;;;;;7.23;6.60;;;;;;;7.95;95.75;95891.25;5069365;28;20443;-61
2021/05/07 07:42:18;;;;;;;7.50;6.90;;;;;;;7.99;94.82;95883.78;5068198;28;20459;-61
2021/05/07 07:44:43;;;;;;;7.37;6.77;;;;;;;7.96;94.67;95897.28;5063213;28;20181;-62
2021/05/07 07:47:09;;;;;;;7.97;7.17;;;;;;;7.54;96.68;95891.16;5053910;28;20208;-61
2021/05/07 07:49:34;;;;;;;8.43;7.33;;;;;;;7.81;97.21;95908.13;5053147;28;20277;-62
2021/05/07 07:52:00;;;;;;;8.03;7.23;;;;;;;7.56;96.60;95910.03;5053352;28;20228;-63
2021/05/07 07:54:26;;;;;;;7.60;6.80;;;;;;;7.49;97.01;95900.66;5052728;28;20179;-62
2021/05/07 07:56:51;;;;;;;7.90;7.20;;;;;;;7.83;97.24;95902.69;5052914;28;20174;-61
2021/05/07 07:59:17;;;;;;;7.97;7.27;;;;;;;8.29;95.18;95910.78;5052678;28;20437;-62
2021/05/07 08:01:42;;;;;;;7.60;6.90;;;;;;;7.96;95.86;95905.13;5052739;28;20549;-62
2021/05/07 08:04:08;;;;;;;8.03;7.23;;;;;;;8.12;93.53;95910.56;5054916;28;20182;-61
2021/05/07 08:06:34;;;;;;;6.40;5.80;;;;;;;8.02;88.79;95935.66;5071579;28;20214;-62
2021/05/07 08:09:00;;;;;;;6.47;5.70;;;;;;;8.63;89.02;95927.59;5071512;28;20495;-61
2021/05/07 08:11:25;;;;;;;7.00;6.40;;;;;;;9.12;87.53;95930.66;5066575;28;20174;-62
2021/05/07 08:13:51;;;;;;;8.53;6.87;;;;;;;9.48;87.20;95934.88;5069365;28;20479;-62
2021/05/07 08:16:16;;;;;;;6.10;5.70;;;;;;;9.74;86.37;95939.66;5056253;28;20192;-61
2021/05/07 08:18:42;;;;;;;6.63;6.03;;;;;;;10.04;84.39;95942.09;5051600;28;20191;-63
2021/05/07 08:21:08;;;;;;;6.33;5.83;;;;;;;10.11;82.40;95945.41;5069434;28;20187;-61
2021/05/07 08:23:33;;;;;;;8.10;5.40;;;;;;;10.10;80.44;95952.50;5070050;28;20192;-62
2021/05/07 08:25:59;;;;;;;6.63;5.83;;;;;;;10.16;79.33;95958.66;5072598;28;20178;-62
2021/05/07 08:28:25;;;;;;;10.10;5.20;;;;;;;9.44;78.28;95965.19;5071994;28;20603;-62
2021/05/07 08:30:50;;;;;;;6.23;5.73;;;;;;;9.08;79.97;95966.22;5070948;28;20284;-63
2021/05/07 08:33:15;;;;;;;4.97;4.67;;;;;;;9.15;80.32;95974.75;5072418;28;20204;-61
2021/05/07 08:35:41;;;;;;;5.13;4.63;;;;;;;9.03;81.31;95976.56;5072310;28;20172;-62
2021/05/07 08:38:08;;;;;;;5.70;5.20;;;;;;;9.48;80.79;95981.28;5063140;28;20691;-62
2021/05/07 08:40:34;;;;;;;5.30;4.80;;;;;;;9.10;81.00;95977.25;5052127;28;20197;-62
2021/05/07 08:42:59;;;;;;;4.60;4.20;;;;;;;9.56;81.82;95979.13;5051808;28;20417;-62
2021/05/07 08:45:25;;;;;;;5.40;4.90;;;;;;;9.62;79.88;95986.06;5058393;28;20180;-63
2021/05/07 08:47:53;;;;;;;5.53;5.10;;;;;;;9.46;80.57;95986.75;5071752;28;20746;-63
2021/05/07 08:50:19;;;;;;;5.43;4.90;;;;;;;9.64;80.88;95989.25;5063889;28;20209;-64
2021/05/07 08:52:46;;;;;;;4.43;4.03;;;;;;;9.52;79.28;95992.91;5067808;28;20437;-64
2021/05/07 08:55:12;;;;;;;4.40;4.10;;;;;;;9.86;82.03;95998.16;5070931;28;20741;-61
2021/05/07 08:57:38;;;;;;;4.97;4.57;;;;;;;10.17;78.12;95999.63;5071716;28;20413;-61
2021/05/07 09:00:08;;;;;;;5.33;4.87;;;;;;;10.53;76.11;96012.41;5072072;28;21047;-61
2021/05/07 09:02:33;;;;;;;4.87;4.47;;;;;;;10.19;73.45;96008.06;5071938;28;20226;-62
2021/05/07 09:04:59;;;;;;;5.63;4.63;;;;;;;10.04;78.09;96011.13;5069154;28;20432;-63
2021/05/07 09:07:28;;;;;;;4.97;4.57;;;;;;;9.65;69.98;96011.06;5069616;28;20213;-60
2021/05/07 09:09:59;;;;;;;4.40;4.10;;;;;;;9.03;71.56;96017.69;5051676;28;20437;-60
2021/05/07 09:12:26;;;;;;;4.90;4.50;;;;;;;9.24;72.41;96017.16;5051832;28;20421;-60
2021/05/07 09:14:52;;;;;;;5.27;4.77;;;;;;;9.45;72.56;96029.75;5051685;28;20416;-62
2021/05/07 09:17:19;;;;;;;4.30;4.00;;;;;;;9.61;71.12;96004.66;5051300;28;20542;-62
2021/05/07 09:19:45;;;;;;;4.43;4.03;;;;;;;9.99;66.77;96020.72;5054592;28;20270;-62
2021/05/07 09:22:21;;;;;;;4.47;4.13;;;;;;;10.18;66.97;96023.00;5071482;28;21202;-62
2021/05/07 09:24:47;;;;;;;4.67;4.13;;;;;;;10.45;65.18;96033.00;5071431;28;20686;-61
2021/05/07 09:27:21;;;;;;;4.53;4.13;;;;;;;10.71;64.95;96035.88;5071051;28;20496;-62
2021/05/07 09:29:47;;;;;;;4.93;4.10;;;;;;;10.66;66.39;96038.41;5071401;28;20199;-63
2021/05/07 09:32:12;;;;;;;3.90;3.40;;;;;;;9.58;66.86;96047.91;5070009;28;21045;-62
2021/05/07 09:34:38;;;;;;;4.20;3.90;;;;;;;9.75;72.70;96040.94;5066653;28;20273;-62
2021/05/07 09:37:18;;;;;;;6.10;5.50;;;;;;;10.18;69.08;96054.50;5057909;28;20186;-63
2021/05/07 09:39:44;;;;;;;4.80;4.50;;;;;;;10.41;66.15;96060.75;5071050;28;20193;-62
2021/05/07 09:42:21;;;;;;;4.53;4.10;;;;;;;10.28;60.01;96070.50;5067654;28;20426;-63
2021/05/07 09:44:46;;;;;;;4.03;3.67;;;;;;;10.38;61.63;96059.41;5051016;28;20171;-63
2021/05/07 09:47:14;;;;;;;3.40;3.20;;;;;;;11.24;62.82;96070.53;5050567;28;20472;-63
2021/05/07 09:49:40;;;;;;;3.30;3.10;;;;;;;10.34;62.09;96080.06;5053110;28;20213;-62
2021/05/07 09:52:05;;;;;;;4.03;3.73;;;;;;;9.90;63.76;96083.25;5050842;28;21015;-63
2021/05/07 09:54:31;;;;;;;4.13;3.80;;;;;;;9.76;59.48;96083.72;5050329;28;20418;-62
2021/05/07 09:56:57;;;;;;;5.00;4.57;;;;;;;9.60;59.71;96079.13;5050620;28;20179;-63
2021/05/07 09:59:23;;;;;;;5.30;3.90;;;;;;;9.72;59.25;96083.38;5050563;28;20225;-65
2021/05/07 10:01:49;;;;;;;5.10;4.57;;;;;;;9.66;58.00;96084.25;5050792;28;21246;-62
2021/05/07 10:04:16;;;;;;;3.73;3.43;;;;;;;9.53;58.06;96092.34;5062633;28;20174;-65
2021/05/07 10:06:42;;;;;;;4.10;3.80;;;;;;;9.62;61.16;96095.44;5058010;28;20495;-64
2021/05/07 10:09:09;;;;;;;3.60;2.90;;;;;;;9.38;56.62;96098.00;5053802;28;20444;-72
2021/05/07 10:11:44;;;;;;;4.40;4.00;;;;;;;9.84;58.63;96096.47;5051081;28;20436;-71
2021/05/07 10:14:13;;;;;;;4.70;3.30;;;;;;;10.32;56.42;96092.66;5057282;28;20842;-69
2021/05/07 10:16:39;;;;;;;3.47;3.27;;;;;;;10.54;59.68;96102.53;5054850;28;21060;-69
2021/05/07 10:19:11;;;;;;;3.73;3.43;;;;;;;10.70;52.53;96096.56;5051991;28;20537;-70
2021/05/07 10:21:48;;;;;;;4.00;3.70;;;;;;;10.77;57.83;96103.28;5066894;28;20424;-69
2021/05/07 10:24:15;;;;;;;4.00;3.70;;;;;;;11.28;53.72;96100.59;5050213;28;20412;-66
2021/05/07 10:26:44;;;;;;;3.60;3.30;;;;;;;11.40;52.94;96100.50;5063149;28;20949;-69
2021/05/07 10:29:18;;;;;;;3.40;3.20;;;;;;;11.29;52.93;96104.00;5066460;28;20563;-68
2021/05/07 10:31:54;;;;;;;3.83;3.17;;;;;;;11.33;53.54;96113.81;5058882;28;20424;-69
2021/05/07 10:34:20;;;;;;;3.90;3.60;;;;;;;10.69;52.73;96126.50;5070413;28;20767;-67
2021/05/07 10:36:48;;;;;;;3.20;2.90;;;;;;;10.76;53.29;96138.47;5064899;28;20428;-68
2021/05/07 10:39:19;;;;;;;3.57;3.30;;;;;;;11.22;52.34;96133.06;5066318;28;20452;-68
2021/05/07 10:41:45;;;;;;;3.33;3.03;;;;;;;11.17;51.00;96135.63;5050034;28;20432;-69
2021/05/07 10:44:13;;;;;;;4.67;3.20;;;;;;;10.98;52.71;96142.06;5056501;28;20524;-70
2021/05/07 10:46:38;;;;;;;3.53;3.23;;;;;;;11.04;53.42;96149.03;5054686;28;20457;-69
2021/05/07 10:49:04;;;;;;;3.47;3.17;;;;;;;11.22;52.49;96133.06;5049185;28;20489;-68
2021/05/07 10:51:30;;;;;;;4.17;3.30;;;;;;;11.24;52.88;96152.06;5049818;28;20244;-69
2021/05/07 10:54:04;;;;;;;3.67;3.00;;;;;;;11.27;52.67;96140.25;5059247;28;20182;-69
2021/05/07 10:56:34;;;;;;;2.80;2.60;;;;;;;11.00;50.52;96145.25;5060773;28;20265;-69
2021/05/07 10:59:14;;;;;;;4.03;3.20;;;;;;;10.86;49.22;96151.81;5058901;28;20785;-70
2021/05/07 11:01:39;;;;;;;3.00;2.70;;;;;;;10.88;51.47;96164.72;5049800;28;20421;-69
2021/05/07 11:04:10;;;;;;;4.27;3.87;;;;;;;10.85;52.68;96167.81;5063149;28;20989;-68
2021/05/07 11:06:45;;;;;;;3.93;3.53;;;;;;;10.91;51.89;96175.56;5058575;28;20183;-69
2021/05/07 11:09:20;;;;;;;3.00;2.80;;;;;;;10.77;51.12;96171.59;5051425;28;20435;-67
2021/05/07 11:11:51;;;;;;;3.73;3.40;;;;;;;11.16;53.16;96175.31;5058382;28;20425;-68
2021/05/07 11:14:21;;;;;;;4.73;3.90;;;;;;;10.99;52.13;96175.22;5057595;28;20428;-69
2021/05/07 11:16:49;;;;;;;4.43;3.13;;;;;;;10.74;50.47;96187.03;5052525;28;20491;-69
2021/05/07 11:19:25;;;;;;;3.80;3.50;;;;;;;10.58;52.93;96182.50;5052117;28;20430;-67
2021/05/07 11:21:55;;;;;;;4.73;3.60;;;;;;;10.96;52.22;96188.03;5056296;28;20436;-68
2021/05/07 11:24:29;;;;;;;3.80;3.60;;;;;;;11.11;52.03;96196.22;5060989;28;20435;-68
2021/05/07 11:26:55;;;;;;;4.50;4.07;;;;;;;11.49;51.09;96191.16;5062034;28;20861;-67
2021/05/07 11:29:29;;;;;;;6.60;3.80;;;;;;;11.07;52.18;96209.03;5070937;28;20526;-67
2021/05/07 11:31:55;;;;;;;4.20;3.80;;;;;;;10.82;54.20;96184.03;5053957;28;20460;-69
2021/05/07 11:34:25;;;;;;;4.53;4.23;;;;;;;10.38;52.14;96216.19;5053568;28;20931;-68
2021/05/07 11:36:58;;;;;;;4.90;3.73;;;;;;;10.68;54.38;96191.38;5061587;28;20428;-70